sensor_id;sensor_type;location;lat;lon;timestamp;pressure;altitude;pressure_sealevel;temperature;humidity
24234;BME280;12365;43.554;1.388;2022-12-07T00:03:37;99881.16;;;11.82;56.89
24234;BME280;12365;43.554;1.388;2022-12-07T00:06:04;99874.03;;;11.78;56.68
24234;BME280;12365;43.554;1.388;2022-12-07T00:08:30;99867.91;;;11.78;56.63
24234;BME280;12365;43.554;1.388;2022-12-07T00:11:04;99860.09;;;11.78;56.80
24234;BME280;12365;43.554;1.388;2022-12-07T00:13:30;99858.41;;;11.80;56.74
24234;BME280;12365;43.554;1.388;2022-12-07T00:15:59;99858.41;;;11.80;57.00
24234;BME280;12365;43.554;1.388;2022-12-07T00:18:24;99862.69;;;11.78;56.98
24234;BME280;12365;43.554;1.388;2022-12-07T00:20:49;99858.16;;;11.74;57.02
24234;BME280;12365;43.554;1.388;2022-12-07T00:23:15;99854.53;;;11.70;57.13
24234;BME280;12365;43.554;1.388;2022-12-07T00:25:40;99840.53;;;11.69;57.13
24234;BME280;12365;43.554;1.388;2022-12-07T00:28:06;99841.38;;;11.68;57.11
24234;BME280;12365;43.554;1.388;2022-12-07T00:30:32;99838.84;;;11.70;57.27
24234;BME280;12365;43.554;1.388;2022-12-07T00:32:58;99846.69;;;11.70;57.38
24234;BME280;12365;43.554;1.388;2022-12-07T00:35:23;99837.91;;;11.69;57.27
24234;BME280;12365;43.554;1.388;2022-12-07T00:37:49;99843.13;;;11.69;57.38
24234;BME280;12365;43.554;1.388;2022-12-07T00:40:14;99835.31;;;11.69;57.19
24234;BME280;12365;43.554;1.388;2022-12-07T00:42:39;99836.97;;;11.67;57.21
24234;BME280;12365;43.554;1.388;2022-12-07T00:45:05;99846.47;;;11.65;57.39
24234;BME280;12365;43.554;1.388;2022-12-07T00:47:31;99845.50;;;11.63;57.47
24234;BME280;12365;43.554;1.388;2022-12-07T00:49:56;99841.91;;;11.61;57.28
24234;BME280;12365;43.554;1.388;2022-12-07T00:52:22;99829.81;;;11.63;57.43
24234;BME280;12365;43.554;1.388;2022-12-07T00:54:47;99830.69;;;11.64;57.48
24234;BME280;12365;43.554;1.388;2022-12-07T00:57:12;99832.50;;;11.65;57.38
24234;BME280;12365;43.554;1.388;2022-12-07T00:59:38;99828.09;;;11.64;57.50
24234;BME280;12365;43.554;1.388;2022-12-07T01:02:03;99829.69;;;11.60;57.54
24234;BME280;12365;43.554;1.388;2022-12-07T01:04:29;99828.63;;;11.57;57.54
24234;BME280;12365;43.554;1.388;2022-12-07T01:06:54;99829.41;;;11.54;57.68
24234;BME280;12365;43.554;1.388;2022-12-07T01:09:20;99827.63;;;11.53;57.71
24234;BME280;12365;43.554;1.388;2022-12-07T01:11:45;99830.16;;;11.52;57.74
24234;BME280;12365;43.554;1.388;2022-12-07T01:14:11;99821.56;;;11.54;57.87
24234;BME280;12365;43.554;1.388;2022-12-07T01:16:38;99822.41;;;11.53;57.74
24234;BME280;12365;43.554;1.388;2022-12-07T01:19:03;99813.69;;;11.53;57.76
24234;BME280;12365;43.554;1.388;2022-12-07T01:21:32;99823.06;;;11.49;57.60
24234;BME280;12365;43.554;1.388;2022-12-07T01:24:04;99823.16;;;11.50;57.93
24234;BME280;12365;43.554;1.388;2022-12-07T01:26:30;99826.53;;;11.48;57.92
24234;BME280;12365;43.554;1.388;2022-12-07T01:28:55;99818.69;;;11.48;57.97
24234;BME280;12365;43.554;1.388;2022-12-07T01:31:23;99820.34;;;11.46;57.88
24234;BME280;12365;43.554;1.388;2022-12-07T01:33:54;99814.22;;;11.45;58.17
24234;BME280;12365;43.554;1.388;2022-12-07T01:36:27;99815.09;;;11.46;58.20
24234;BME280;12365;43.554;1.388;2022-12-07T01:39:01;99813.25;;;11.43;58.22
24234;BME280;12365;43.554;1.388;2022-12-07T01:41:29;99816.63;;;11.41;57.79
24234;BME280;12365;43.554;1.388;2022-12-07T01:46:57;99829.69;;;11.41;58.00
24234;BME280;12365;43.554;1.388;2022-12-07T01:49:39;99828.84;;;11.42;57.80
24234;BME280;12365;43.554;1.388;2022-12-07T01:52:26;99835.88;;;11.43;57.96
24234;BME280;12365;43.554;1.388;2022-12-07T01:54:55;99834.81;;;11.39;58.15
24234;BME280;12365;43.554;1.388;2022-12-07T01:57:22;99830.53;;;11.40;58.12
24234;BME280;12365;43.554;1.388;2022-12-07T01:59:49;99828.84;;;11.42;57.90
24234;BME280;12365;43.554;1.388;2022-12-07T02:02:42;99828.84;;;11.42;58.00
24234;BME280;12365;43.554;1.388;2022-12-07T02:05:09;99825.28;;;11.40;58.07
24234;BME280;12365;43.554;1.388;2022-12-07T02:07:36;99823.50;;;11.39;58.21
24234;BME280;12365;43.554;1.388;2022-12-07T02:10:24;99835.00;;;11.42;58.13
24234;BME280;12365;43.554;1.388;2022-12-07T02:12:54;99835.66;;;11.38;58.17
24234;BME280;12365;43.554;1.388;2022-12-07T02:15:22;99833.03;;;11.38;58.09
24234;BME280;12365;43.554;1.388;2022-12-07T02:18:09;99824.31;;;11.38;58.19
24234;BME280;12365;43.554;1.388;2022-12-07T02:23:56;99818.00;;;11.33;58.32
24234;BME280;12365;43.554;1.388;2022-12-07T02:29:22;99818.81;;;11.32;58.43
24234;BME280;12365;43.554;1.388;2022-12-07T02:32:01;99822.38;;;11.34;58.50
24234;BME280;12365;43.554;1.388;2022-12-07T02:36:58;99818.00;;;11.33;58.28
24234;BME280;12365;43.554;1.388;2022-12-07T02:39:57;99818.97;;;11.35;58.36
24234;BME280;12365;43.554;1.388;2022-12-07T02:42:32;99819.78;;;11.34;58.31
24234;BME280;12365;43.554;1.388;2022-12-07T02:45:00;99821.59;;;11.35;58.26
24234;BME280;12365;43.554;1.388;2022-12-07T02:47:27;99828.44;;;11.33;58.51
24234;BME280;12365;43.554;1.388;2022-12-07T02:49:55;99821.50;;;11.33;58.42
24234;BME280;12365;43.554;1.388;2022-12-07T02:52:20;99822.38;;;11.34;58.57
24234;BME280;12365;43.554;1.388;2022-12-07T02:54:46;99819.78;;;11.34;58.71
24234;BME280;12365;43.554;1.388;2022-12-07T02:57:27;99814.56;;;11.34;58.72
24234;BME280;12365;43.554;1.388;2022-12-07T03:00:01;99810.97;;;11.32;58.54
24234;BME280;12365;43.554;1.388;2022-12-07T03:10:28;99813.66;;;11.33;58.49
24234;BME280;12365;43.554;1.388;2022-12-07T03:19:03;99813.53;;;11.30;59.03
24234;BME280;12365;43.554;1.388;2022-12-07T03:21:38;99813.56;;;11.32;58.92
24234;BME280;12365;43.554;1.388;2022-12-07T03:24:10;99817.16;;;11.34;58.58
24234;BME280;12365;43.554;1.388;2022-12-07T03:26:40;99822.34;;;11.32;58.65
24234;BME280;12365;43.554;1.388;2022-12-07T03:29:17;99819.78;;;11.34;59.02
24234;BME280;12365;43.554;1.388;2022-12-07T03:31:47;99827.56;;;11.32;59.08
24234;BME280;12365;43.554;1.388;2022-12-07T03:34:31;99825.84;;;11.33;58.67
24234;BME280;12365;43.554;1.388;2022-12-07T03:37:03;99827.59;;;11.34;58.89
24234;BME280;12365;43.554;1.388;2022-12-07T03:40:22;99825.88;;;11.34;59.07
24234;BME280;12365;43.554;1.388;2022-12-07T03:42:20;99818.97;;;11.35;58.87
24234;BME280;12365;43.554;1.388;2022-12-07T03:44:45;99811.94;;;11.34;58.60
24234;BME280;12365;43.554;1.388;2022-12-07T03:47:31;99806.72;;;11.34;58.88
24234;BME280;12365;43.554;1.388;2022-12-07T03:50:04;99816.34;;;11.35;58.98
24234;BME280;12365;43.554;1.388;2022-12-07T03:52:37;99806.78;;;11.35;58.91
24234;BME280;12365;43.554;1.388;2022-12-07T03:55:24;99802.47;;;11.36;59.05
24234;BME280;12365;43.554;1.388;2022-12-07T03:57:54;99802.47;;;11.36;58.79
24234;BME280;12365;43.554;1.388;2022-12-07T04:00:21;99794.53;;;11.34;59.15
24234;BME280;12365;43.554;1.388;2022-12-07T04:02:47;99794.50;;;11.33;58.95
24234;BME280;12365;43.554;1.388;2022-12-07T04:05:12;99803.31;;;11.35;59.03
24234;BME280;12365;43.554;1.388;2022-12-07T04:07:38;99792.78;;;11.33;59.25
24234;BME280;12365;43.554;1.388;2022-12-07T04:10:04;99792.78;;;11.33;59.00
24234;BME280;12365;43.554;1.388;2022-12-07T04:12:30;99798.75;;;11.31;59.14
24234;BME280;12365;43.554;1.388;2022-12-07T04:14:55;99795.31;;;11.32;59.04
24234;BME280;12365;43.554;1.388;2022-12-07T04:17:20;99796.13;;;11.31;59.31
24234;BME280;12365;43.554;1.388;2022-12-07T04:19:46;99795.31;;;11.32;59.32
24234;BME280;12365;43.554;1.388;2022-12-07T04:22:11;99793.53;;;11.31;59.52
24234;BME280;12365;43.554;1.388;2022-12-07T04:24:36;99793.53;;;11.31;59.27
24234;BME280;12365;43.554;1.388;2022-12-07T04:27:02;99790.06;;;11.32;59.17
24234;BME280;12365;43.554;1.388;2022-12-07T04:29:28;99791.88;;;11.33;59.48
24234;BME280;12365;43.554;1.388;2022-12-07T04:31:53;99787.41;;;11.30;59.52
24234;BME280;12365;43.554;1.388;2022-12-07T04:34:19;99785.59;;;11.29;59.52
24234;BME280;12365;43.554;1.388;2022-12-07T04:36:45;99790.91;;;11.31;59.46
24234;BME280;12365;43.554;1.388;2022-12-07T04:39:27;99789.94;;;11.28;59.61
24234;BME280;12365;43.554;1.388;2022-12-07T04:41:53;99795.31;;;11.32;59.39
24234;BME280;12365;43.554;1.388;2022-12-07T04:44:19;99791.66;;;11.28;59.35
24234;BME280;12365;43.554;1.388;2022-12-07T04:46:46;99795.91;;;11.26;59.57
24234;BME280;12365;43.554;1.388;2022-12-07T04:49:13;99795.91;;;11.26;59.48
24234;BME280;12365;43.554;1.388;2022-12-07T04:51:39;99789.91;;;11.27;59.71
24234;BME280;12365;43.554;1.388;2022-12-07T04:54:05;99793.44;;;11.29;59.41
24234;BME280;12365;43.554;1.388;2022-12-07T04:56:30;99789.94;;;11.28;59.56
24234;BME280;12365;43.554;1.388;2022-12-07T04:58:56;99791.75;;;11.30;59.61
24234;BME280;12365;43.554;1.388;2022-12-07T05:01:22;99789.13;;;11.30;59.42
24234;BME280;12365;43.554;1.388;2022-12-07T05:03:49;99791.75;;;11.30;59.48
24234;BME280;12365;43.554;1.388;2022-12-07T05:06:14;99796.06;;;11.29;59.80
24234;BME280;12365;43.554;1.388;2022-12-07T05:08:40;99792.56;;;11.28;59.91
24234;BME280;12365;43.554;1.388;2022-12-07T05:11:07;99785.59;;;11.29;59.77
24234;BME280;12365;43.554;1.388;2022-12-07T05:13:33;99790.81;;;11.29;59.75
24234;BME280;12365;43.554;1.388;2022-12-07T05:15:59;99791.75;;;11.30;59.68
24234;BME280;12365;43.554;1.388;2022-12-07T05:18:24;99791.66;;;11.28;59.91
24234;BME280;12365;43.554;1.388;2022-12-07T05:20:50;99781.31;;;11.30;59.71
24234;BME280;12365;43.554;1.388;2022-12-07T05:23:16;99790.81;;;11.29;59.78
24234;BME280;12365;43.554;1.388;2022-12-07T05:25:42;99783.91;;;11.30;60.08
24234;BME280;12365;43.554;1.388;2022-12-07T05:28:08;99784.72;;;11.28;59.83
24234;BME280;12365;43.554;1.388;2022-12-07T05:30:33;99784.72;;;11.28;60.29
24234;BME280;12365;43.554;1.388;2022-12-07T05:32:59;99776.97;;;11.30;60.05
24234;BME280;12365;43.554;1.388;2022-12-07T05:35:24;99768.25;;;11.30;60.14
24234;BME280;12365;43.554;1.388;2022-12-07T05:37:50;99766.56;;;11.32;60.14
24234;BME280;12365;43.554;1.388;2022-12-07T05:40:15;99769.19;;;11.32;60.19
24234;BME280;12365;43.554;1.388;2022-12-07T05:42:42;99770.09;;;11.32;60.18
24234;BME280;12365;43.554;1.388;2022-12-07T05:45:08;99770.09;;;11.32;60.20
24234;BME280;12365;43.554;1.388;2022-12-07T05:47:34;99769.19;;;11.32;60.15
24234;BME280;12365;43.554;1.388;2022-12-07T05:50:00;99771.78;;;11.32;60.13
24234;BME280;12365;43.554;1.388;2022-12-07T05:52:25;99775.38;;;11.34;60.29
24234;BME280;12365;43.554;1.388;2022-12-07T05:54:51;99772.63;;;11.31;60.16
24234;BME280;12365;43.554;1.388;2022-12-07T05:57:17;99774.34;;;11.30;60.09
24234;BME280;12365;43.554;1.388;2022-12-07T05:59:42;99771.78;;;11.32;60.09
24234;BME280;12365;43.554;1.388;2022-12-07T06:02:11;99776.97;;;11.30;60.09
24234;BME280;12365;43.554;1.388;2022-12-07T06:04:39;99771.75;;;11.30;60.07
24234;BME280;12365;43.554;1.388;2022-12-07T06:07:05;99775.31;;;11.32;60.05
24234;BME280;12365;43.554;1.388;2022-12-07T06:09:32;99766.53;;;11.30;60.31
24234;BME280;12365;43.554;1.388;2022-12-07T06:11:58;99763.81;;;11.28;60.40
24234;BME280;12365;43.554;1.388;2022-12-07T06:14:42;99769.94;;;11.29;60.29
24234;BME280;12365;43.554;1.388;2022-12-07T06:17:08;99766.38;;;11.27;60.30
24234;BME280;12365;43.554;1.388;2022-12-07T06:19:34;99769.81;;;11.26;60.26
24234;BME280;12365;43.554;1.388;2022-12-07T06:22:00;99768.91;;;11.25;60.31
24234;BME280;12365;43.554;1.388;2022-12-07T06:24:26;99762.69;;;11.22;60.39
24234;BME280;12365;43.554;1.388;2022-12-07T06:26:51;99764.38;;;11.21;60.46
24234;BME280;12365;43.554;1.388;2022-12-07T06:29:17;99772.22;;;11.21;60.25
24234;BME280;12365;43.554;1.388;2022-12-07T06:31:43;99767.81;;;11.20;60.37
24234;BME280;12365;43.554;1.388;2022-12-07T06:34:19;99768.66;;;11.19;60.21
24234;BME280;12365;43.554;1.388;2022-12-07T06:36:45;99771.94;;;11.15;60.22
24234;BME280;12365;43.554;1.388;2022-12-07T06:39:12;99769.25;;;11.14;60.55
24234;BME280;12365;43.554;1.388;2022-12-07T06:41:38;99765.72;;;11.12;60.32
24234;BME280;12365;43.554;1.388;2022-12-07T06:44:05;99765.72;;;11.12;60.57
24234;BME280;12365;43.554;1.388;2022-12-07T06:46:31;99765.63;;;11.10;60.42
24234;BME280;12365;43.554;1.388;2022-12-07T06:48:57;99765.50;;;11.07;60.35
24234;BME280;12365;43.554;1.388;2022-12-07T06:51:22;99767.13;;;11.05;60.30
24234;BME280;12365;43.554;1.388;2022-12-07T06:53:48;99767.88;;;11.02;60.66
24234;BME280;12365;43.554;1.388;2022-12-07T06:56:13;99769.59;;;11.02;60.44
24234;BME280;12365;43.554;1.388;2022-12-07T06:58:39;99762.59;;;11.01;60.56
24234;BME280;12365;43.554;1.388;2022-12-07T07:01:16;99759.03;;;10.99;60.59
24234;BME280;12365;43.554;1.388;2022-12-07T07:03:43;99758.88;;;10.96;60.87
24234;BME280;12365;43.554;1.388;2022-12-07T07:06:09;99765.72;;;10.94;60.69
24234;BME280;12365;43.554;1.388;2022-12-07T07:08:35;99770.00;;;10.92;60.86
24234;BME280;12365;43.554;1.388;2022-12-07T07:11:02;99768.91;;;10.87;60.73
24234;BME280;12365;43.554;1.388;2022-12-07T07:13:27;99774.03;;;10.85;60.70
24234;BME280;12365;43.554;1.388;2022-12-07T07:15:53;99765.19;;;10.81;60.90
24234;BME280;12365;43.554;1.388;2022-12-07T07:18:18;99769.44;;;10.79;60.62
24234;BME280;12365;43.554;1.388;2022-12-07T07:20:44;99778.06;;;10.78;60.73
24234;BME280;12365;43.554;1.388;2022-12-07T07:23:09;99767.63;;;10.78;60.98
24234;BME280;12365;43.554;1.388;2022-12-07T07:25:35;99771.97;;;10.78;60.83
24234;BME280;12365;43.554;1.388;2022-12-07T07:28:01;99773.69;;;10.77;60.79
24234;BME280;12365;43.554;1.388;2022-12-07T07:30:26;99773.78;;;10.79;60.70
24234;BME280;12365;43.554;1.388;2022-12-07T07:32:59;99781.66;;;10.80;60.83
24234;BME280;12365;43.554;1.388;2022-12-07T07:35:26;99780.84;;;10.81;60.88
24234;BME280;12365;43.554;1.388;2022-12-07T07:37:51;99787.09;;;10.85;60.74
24234;BME280;12365;43.554;1.388;2022-12-07T07:40:17;99789.84;;;10.88;61.02
24234;BME280;12365;43.554;1.388;2022-12-07T07:42:42;99782.97;;;10.90;60.79
24234;BME280;12365;43.554;1.388;2022-12-07T07:45:08;99789.22;;;10.94;60.66
24234;BME280;12365;43.554;1.388;2022-12-07T07:47:33;99784.97;;;10.96;60.94
24234;BME280;12365;43.554;1.388;2022-12-07T07:49:59;99782.44;;;10.97;60.97
24234;BME280;12365;43.554;1.388;2022-12-07T07:52:25;99785.13;;;10.99;61.07
24234;BME280;12365;43.554;1.388;2022-12-07T07:54:50;99785.41;;;11.05;60.75
24234;BME280;12365;43.554;1.388;2022-12-07T07:57:16;99787.34;;;11.09;60.60
24234;BME280;12365;43.554;1.388;2022-12-07T07:59:42;99787.47;;;11.12;60.84
24234;BME280;12365;43.554;1.388;2022-12-07T08:02:17;99782.38;;;11.15;60.86
24234;BME280;12365;43.554;1.388;2022-12-07T08:04:43;99787.81;;;11.20;60.92
24234;BME280;12365;43.554;1.388;2022-12-07T08:07:08;99793.25;;;11.24;60.56
24234;BME280;12365;43.554;1.388;2022-12-07T08:09:34;99790.28;;;11.36;60.71
24234;BME280;12365;43.554;1.388;2022-12-07T08:11:59;99791.13;;;11.55;60.69
24234;BME280;12365;43.554;1.388;2022-12-07T08:14:25;99792.88;;;11.75;60.55
24234;BME280;12365;43.554;1.388;2022-12-07T08:16:52;99792.38;;;11.84;60.36
24234;BME280;12365;43.554;1.388;2022-12-07T08:19:18;99791.72;;;11.88;60.38
24234;BME280;12365;43.554;1.388;2022-12-07T08:21:43;99787.38;;;11.88;60.38
24234;BME280;12365;43.554;1.388;2022-12-07T08:24:09;99793.63;;;11.92;60.31
24234;BME280;12365;43.554;1.388;2022-12-07T08:26:34;99788.47;;;11.93;60.35
24234;BME280;12365;43.554;1.388;2022-12-07T08:29:00;99785.28;;;12.01;60.41
24234;BME280;12365;43.554;1.388;2022-12-07T08:31:25;99786.81;;;12.17;60.44
24234;BME280;12365;43.554;1.388;2022-12-07T08:33:52;99787.97;;;12.23;59.99
24234;BME280;12365;43.554;1.388;2022-12-07T08:36:18;99796.75;;;12.25;59.98
24234;BME280;12365;43.554;1.388;2022-12-07T08:38:44;99798.03;;;12.35;59.92
24234;BME280;12365;43.554;1.388;2022-12-07T08:41:09;99796.03;;;12.50;59.90
24234;BME280;12365;43.554;1.388;2022-12-07T08:43:35;99793.78;;;12.60;59.77
24234;BME280;12365;43.554;1.388;2022-12-07T08:46:11;99792.19;;;12.63;59.89
24234;BME280;12365;43.554;1.388;2022-12-07T08:48:42;99799.41;;;12.69;59.73
24234;BME280;12365;43.554;1.388;2022-12-07T08:51:09;99804.47;;;12.87;59.64
24234;BME280;12365;43.554;1.388;2022-12-07T08:53:37;99800.94;;;12.86;59.33
24234;BME280;12365;43.554;1.388;2022-12-07T08:56:03;99795.25;;;12.96;59.27
24234;BME280;12365;43.554;1.388;2022-12-07T08:58:29;99799.38;;;13.14;59.28
24234;BME280;12365;43.554;1.388;2022-12-07T09:00:54;99799.06;;;13.27;59.18
24234;BME280;12365;43.554;1.388;2022-12-07T09:03:19;99802.84;;;13.35;58.83
24234;BME280;12365;43.554;1.388;2022-12-07T09:05:45;99794.69;;;13.28;58.71
24234;BME280;12365;43.554;1.388;2022-12-07T09:08:11;99798.84;;;13.22;58.68
24234;BME280;12365;43.554;1.388;2022-12-07T09:10:36;99796.94;;;13.18;58.62
24234;BME280;12365;43.554;1.388;2022-12-07T09:13:02;99798.66;;;13.18;58.48
24234;BME280;12365;43.554;1.388;2022-12-07T09:15:28;99801.34;;;13.19;58.36
24234;BME280;12365;43.554;1.388;2022-12-07T09:17:54;99798.78;;;13.21;58.28
24234;BME280;12365;43.554;1.388;2022-12-07T09:20:19;99804.34;;;13.29;58.10
24234;BME280;12365;43.554;1.388;2022-12-07T09:22:45;99797.50;;;13.32;57.97
24234;BME280;12365;43.554;1.388;2022-12-07T09:25:10;99796.03;;;13.40;57.76
24234;BME280;12365;43.554;1.388;2022-12-07T09:27:35;99789.63;;;13.56;57.77
24234;BME280;12365;43.554;1.388;2022-12-07T09:30:01;99794.41;;;13.68;57.46
24234;BME280;12365;43.554;1.388;2022-12-07T09:32:27;99791.00;;;13.71;57.27
24234;BME280;12365;43.554;1.388;2022-12-07T09:34:52;99791.28;;;13.78;57.08
24234;BME280;12365;43.554;1.388;2022-12-07T09:37:18;99795.06;;;13.86;56.85
24234;BME280;12365;43.554;1.388;2022-12-07T09:39:43;99788.34;;;13.95;56.60
24234;BME280;12365;43.554;1.388;2022-12-07T09:42:19;99798.03;;;13.97;56.49
24234;BME280;12365;43.554;1.388;2022-12-07T09:44:50;99794.63;;;14.00;56.46
24234;BME280;12365;43.554;1.388;2022-12-07T09:47:15;99801.84;;;14.05;56.30
24234;BME280;12365;43.554;1.388;2022-12-07T09:49:40;99802.84;;;14.09;55.78
24234;BME280;12365;43.554;1.388;2022-12-07T09:54:36;99805.63;;;14.14;55.63
24234;BME280;12365;43.554;1.388;2022-12-07T09:57:05;99801.16;;;14.11;55.58
24234;BME280;12365;43.554;1.388;2022-12-07T09:59:31;99800.63;;;14.21;55.46
24234;BME280;12365;43.554;1.388;2022-12-07T10:02:31;99802.00;;;14.36;55.16
24234;BME280;12365;43.554;1.388;2022-12-07T10:04:59;99801.06;;;14.35;54.75
24234;BME280;12365;43.554;1.388;2022-12-07T10:07:25;99795.72;;;14.32;54.68
24234;BME280;12365;43.554;1.388;2022-12-07T10:09:50;99808.81;;;14.30;54.45
24234;BME280;12365;43.554;1.388;2022-12-07T10:12:15;99805.50;;;14.36;54.31
24234;BME280;12365;43.554;1.388;2022-12-07T10:15:02;99809.34;;;14.47;54.25
24234;BME280;12365;43.554;1.388;2022-12-07T10:20:28;99797.75;;;14.66;53.86
24234;BME280;12365;43.554;1.388;2022-12-07T10:22:58;99799.69;;;14.73;53.49
24234;BME280;12365;43.554;1.388;2022-12-07T10:25:27;99788.94;;;14.64;53.53
24234;BME280;12365;43.554;1.388;2022-12-07T10:28:19;99784.41;;;14.60;53.37
24234;BME280;12365;43.554;1.388;2022-12-07T10:30:48;99790.75;;;14.67;53.29
24234;BME280;12365;43.554;1.388;2022-12-07T10:33:33;99787.25;;;14.66;53.37
24234;BME280;12365;43.554;1.388;2022-12-07T10:36:14;99778.81;;;14.77;53.01
24234;BME280;12365;43.554;1.388;2022-12-07T10:38:48;99763.69;;;14.98;52.99
24234;BME280;12365;43.554;1.388;2022-12-07T10:41:14;99771.28;;;15.17;52.68
24234;BME280;12365;43.554;1.388;2022-12-07T10:43:50;99764.69;;;15.32;52.62
24234;BME280;12365;43.554;1.388;2022-12-07T11:01:50;99734.69;;;16.23;51.04
24234;BME280;12365;43.554;1.388;2022-12-07T11:04:27;99737.63;;;16.37;50.77
24234;BME280;12365;43.554;1.388;2022-12-07T11:12:27;99725.47;;;16.80;50.20
24234;BME280;12365;43.554;1.388;2022-12-07T11:15:12;99713.34;;;16.88;49.71
24234;BME280;12365;43.554;1.388;2022-12-07T11:20:53;99716.91;;;16.89;49.25
24234;BME280;12365;43.554;1.388;2022-12-07T11:27:15;99692.56;;;17.02;48.92
24234;BME280;12365;43.554;1.388;2022-12-07T11:29:16;99692.69;;;17.08;48.69
24234;BME280;12365;43.554;1.388;2022-12-07T11:34:43;99692.91;;;17.19;48.09
24234;BME280;12365;43.554;1.388;2022-12-07T11:37:17;99693.94;;;17.27;47.91
24234;BME280;12365;43.554;1.388;2022-12-07T11:39:46;99691.56;;;17.40;47.99
24234;BME280;12365;43.554;1.388;2022-12-07T11:42:18;99691.31;;;17.29;47.71
24234;BME280;12365;43.554;1.388;2022-12-07T11:47:28;99683.56;;;17.37;47.51
24234;BME280;12365;43.554;1.388;2022-12-07T11:53:18;99681.88;;;17.42;47.00
24234;BME280;12365;43.554;1.388;2022-12-07T11:56:03;99675.69;;;17.38;47.13
24234;BME280;12365;43.554;1.388;2022-12-07T12:01:16;99666.94;;;17.41;46.78
24234;BME280;12365;43.554;1.388;2022-12-07T12:06:29;99660.25;;;17.61;46.39
24234;BME280;12365;43.554;1.388;2022-12-07T12:08:56;99662.09;;;17.65;46.32
24234;BME280;12365;43.554;1.388;2022-12-07T12:22:41;99636.84;;;17.80;45.66
24234;BME280;12365;43.554;1.388;2022-12-07T12:27:45;99636.84;;;17.80;45.50
24234;BME280;12365;43.554;1.388;2022-12-07T12:30:32;99635.94;;;17.79;45.42
24234;BME280;12365;43.554;1.388;2022-12-07T12:35:37;99629.91;;;17.85;45.29
24234;BME280;12365;43.554;1.388;2022-12-07T12:40:57;99622.22;;;18.00;45.24
24234;BME280;12365;43.554;1.388;2022-12-07T12:43:42;99620.50;;;18.01;45.09
24234;BME280;12365;43.554;1.388;2022-12-07T12:51:57;99618.84;;;18.09;45.05
24234;BME280;12365;43.554;1.388;2022-12-07T12:54:24;99613.50;;;18.04;45.03
24234;BME280;12365;43.554;1.388;2022-12-07T12:59:31;99601.81;;;17.90;44.85
24234;BME280;12365;43.554;1.388;2022-12-07T13:05:14;99591.16;;;17.81;44.93
24234;BME280;12365;43.554;1.388;2022-12-07T13:15:55;99582.03;;;17.63;44.65
24234;BME280;12365;43.554;1.388;2022-12-07T13:18:39;99575.75;;;17.57;44.81
24234;BME280;12365;43.554;1.388;2022-12-07T13:31:41;99560.72;;;17.51;44.69
24234;BME280;12365;43.554;1.388;2022-12-07T13:34:33;99560.72;;;17.51;44.72
24234;BME280;12365;43.554;1.388;2022-12-07T13:39:34;99566.72;;;17.41;44.71
24234;BME280;12365;43.554;1.388;2022-12-07T13:42:09;99555.16;;;17.32;44.80
24234;BME280;12365;43.554;1.388;2022-12-07T13:44:40;99551.56;;;17.27;44.77
24234;BME280;12365;43.554;1.388;2022-12-07T13:47:09;99547.13;;;17.26;44.88
24234;BME280;12365;43.554;1.388;2022-12-07T13:49:47;99546.22;;;17.24;44.85
24234;BME280;12365;43.554;1.388;2022-12-07T13:52:25;99545.31;;;17.22;44.76
24234;BME280;12365;43.554;1.388;2022-12-07T13:57:29;99544.97;;;17.04;44.75
24234;BME280;12365;43.554;1.388;2022-12-07T14:00:00;99544.91;;;17.01;44.85
24234;BME280;12365;43.554;1.388;2022-12-07T14:02:28;99544.88;;;16.98;44.68
24234;BME280;12365;43.554;1.388;2022-12-07T14:05:14;99543.94;;;16.94;44.88
24234;BME280;12365;43.554;1.388;2022-12-07T14:10:41;99539.41;;;16.87;45.07
24234;BME280;12365;43.554;1.388;2022-12-07T14:13:35;99535.81;;;16.83;45.04
24234;BME280;12365;43.554;1.388;2022-12-07T14:16:03;99541.03;;;16.79;45.04
24234;BME280;12365;43.554;1.388;2022-12-07T14:18:41;99546.16;;;16.74;45.14
24234;BME280;12365;43.554;1.388;2022-12-07T14:23:36;99543.34;;;16.65;45.19
24234;BME280;12365;43.554;1.388;2022-12-07T14:26:11;99545.00;;;16.60;45.23
24234;BME280;12365;43.554;1.388;2022-12-07T14:28:38;99536.13;;;16.55;45.42
24234;BME280;12365;43.554;1.388;2022-12-07T14:31:10;99537.81;;;16.53;45.43
24234;BME280;12365;43.554;1.388;2022-12-07T14:33:36;99532.50;;;16.50;45.33
24234;BME280;12365;43.554;1.388;2022-12-07T14:36:02;99534.19;;;16.46;45.48
24234;BME280;12365;43.554;1.388;2022-12-07T14:38:27;99538.50;;;16.41;45.43
24234;BME280;12365;43.554;1.388;2022-12-07T14:40:53;99537.56;;;16.39;45.44
24234;BME280;12365;43.554;1.388;2022-12-07T14:43:20;99542.78;;;16.37;45.50
24234;BME280;12365;43.554;1.388;2022-12-07T14:45:46;99533.13;;;16.36;45.39
24234;BME280;12365;43.554;1.388;2022-12-07T14:48:13;99530.44;;;16.35;45.58
24234;BME280;12365;43.554;1.388;2022-12-07T14:50:42;99529.59;;;16.36;45.53
24234;BME280;12365;43.554;1.388;2022-12-07T14:53:16;99526.03;;;16.34;45.52
24234;BME280;12365;43.554;1.388;2022-12-07T14:55:42;99525.94;;;16.29;45.65
24234;BME280;12365;43.554;1.388;2022-12-07T14:58:13;99528.53;;;16.26;45.63
24234;BME280;12365;43.554;1.388;2022-12-07T15:00:39;99524.91;;;16.21;45.65
24234;BME280;12365;43.554;1.388;2022-12-07T15:03:05;99525.75;;;16.20;45.77
24234;BME280;12365;43.554;1.388;2022-12-07T15:05:30;99528.38;;;16.20;45.61
24234;BME280;12365;43.554;1.388;2022-12-07T15:07:55;99523.09;;;16.20;45.85
24234;BME280;12365;43.554;1.388;2022-12-07T15:10:27;99518.72;;;16.19;45.61
24234;BME280;12365;43.554;1.388;2022-12-07T15:12:57;99518.72;;;16.19;45.83
24234;BME280;12365;43.554;1.388;2022-12-07T15:15:47;99520.41;;;16.17;45.92
24234;BME280;12365;43.554;1.388;2022-12-07T15:18:13;99520.31;;;16.12;46.00
24234;BME280;12365;43.554;1.388;2022-12-07T15:20:39;99515.88;;;16.08;45.92
24234;BME280;12365;43.554;1.388;2022-12-07T15:23:04;99514.06;;;16.06;46.10
24234;BME280;12365;43.554;1.388;2022-12-07T15:25:30;99506.13;;;16.04;46.13